createdAt,value
2018-02-16T00:01:08.761Z,76.00
2018-02-16T00:03:37.146Z,76.10
2018-02-16T00:06:05.534Z,76.00
2018-02-16T00:08:34.315Z,76.00
2018-02-16T00:11:02.677Z,76.10
2018-02-16T00:13:31.056Z,76.10
2018-02-16T00:15:59.439Z,76.00
2018-02-16T00:18:27.801Z,75.90
2018-02-16T00:20:56.217Z,75.90
2018-02-16T00:23:24.596Z,75.80
2018-02-16T00:25:53.029Z,75.80
2018-02-16T00:28:21.393Z,76.00
2018-02-16T00:30:50.534Z,76.10
2018-02-16T00:33:18.921Z,76.10
2018-02-16T00:35:47.290Z,76.10
2018-02-16T00:38:15.673Z,76.10
2018-02-16T00:40:44.037Z,75.90
2018-02-16T00:43:12.634Z,76.00
2018-02-16T00:45:41.013Z,76.10
2018-02-16T00:48:09.382Z,76.00
2018-02-16T00:50:37.787Z,76.30
2018-02-16T00:53:06.165Z,76.40
2018-02-16T00:55:34.557Z,76.20
2018-02-16T00:58:02.925Z,76.20
2018-02-16T01:00:31.341Z,76.20
2018-02-16T01:03:00.474Z,75.70
2018-02-16T01:05:28.841Z,75.70
2018-02-16T01:07:57.237Z,75.60
2018-02-16T01:10:25.622Z,75.70
2018-02-16T01:12:54.008Z,75.60
2018-02-16T01:15:22.381Z,75.60
2018-02-16T01:17:50.945Z,75.80
2018-02-16T01:20:19.305Z,75.80
2018-02-16T01:22:47.665Z,75.70
2018-02-16T01:25:16.814Z,75.80
2018-02-16T01:27:45.186Z,75.80
2018-02-16T01:30:13.571Z,75.60
2018-02-16T01:32:41.938Z,75.70
2018-02-16T01:35:10.517Z,75.80
2018-02-16T01:37:38.882Z,75.80
2018-02-16T01:40:07.245Z,75.90
2018-02-16T01:42:35.729Z,75.80
2018-02-16T01:45:04.102Z,75.90
2018-02-16T01:47:33.253Z,75.80
2018-02-16T01:50:09.373Z,75.70
2018-02-16T01:52:38.057Z,75.70
2018-02-16T01:55:06.418Z,75.90
2018-02-16T01:57:35.959Z,76.00
2018-02-16T02:00:04.341Z,76.00
2018-02-16T02:02:32.718Z,75.70
2018-02-16T02:05:01.113Z,75.80
2018-02-16T02:07:29.473Z,75.20
2018-02-16T02:09:57.867Z,75.10
2018-02-16T02:12:26.235Z,75.10
2018-02-16T02:14:55.021Z,75.10
2018-02-16T02:17:23.393Z,75.20
2018-02-16T02:19:51.753Z,75.80
2018-02-16T02:22:20.141Z,75.70
2018-02-16T02:24:48.511Z,75.70
2018-02-16T02:27:16.901Z,75.60
2018-02-16T02:29:45.296Z,75.70
2018-02-16T02:32:14.071Z,75.90
2018-02-16T02:34:42.428Z,75.90
2018-02-16T02:37:10.790Z,75.80
2018-02-16T02:39:39.940Z,76.10
2018-02-16T02:42:08.302Z,76.10
2018-02-16T02:44:36.729Z,76.10
2018-02-16T02:47:05.094Z,76.30
2018-02-16T02:49:33.504Z,76.40
2018-02-16T02:52:02.633Z,76.20
2018-02-16T02:54:30.996Z,76.20
2018-02-16T02:56:59.387Z,76.00
2018-02-16T02:59:27.761Z,76.20
2018-02-16T03:01:56.157Z,76.20
2018-02-16T03:04:24.526Z,76.30
2018-02-16T03:06:52.921Z,76.40
2018-02-16T03:09:21.284Z,76.50
2018-02-16T03:11:49.698Z,76.30
2018-02-16T03:14:18.134Z,76.40
2018-02-16T03:16:46.504Z,76.40
2018-02-16T03:19:14.890Z,76.40
2018-02-16T03:21:43.262Z,76.50
2018-02-16T03:24:11.645Z,76.70
2018-02-16T03:26:40.007Z,76.70
2018-02-16T03:29:09.342Z,76.50
2018-02-16T03:31:37.709Z,76.50
2018-02-16T03:34:06.069Z,76.50
2018-02-16T03:36:34.457Z,76.80
2018-02-16T03:39:02.825Z,76.90
2018-02-16T03:41:31.213Z,77.10
2018-02-16T03:43:59.574Z,77.30
2018-02-16T03:46:28.902Z,77.70
2018-02-16T03:48:57.273Z,77.60
2018-02-16T03:51:25.629Z,77.70
2018-02-16T03:53:54.781Z,78.00
2018-02-16T03:56:23.149Z,78.00
2018-02-16T03:58:51.645Z,77.90
2018-02-16T04:01:20.010Z,78.00
2018-02-16T04:03:48.590Z,78.00
2018-02-16T04:06:16.950Z,78.20
2018-02-16T04:08:45.329Z,78.50
2018-02-16T04:11:13.886Z,78.50
2018-02-16T04:13:43.038Z,78.70
2018-02-16T04:16:11.421Z,78.70
2018-02-16T04:18:39.784Z,78.80
2018-02-16T04:21:08.453Z,79.10
2018-02-16T04:23:36.821Z,79.20
2018-02-16T04:26:05.192Z,79.30
2018-02-16T04:28:33.577Z,79.30
2018-02-16T04:31:01.946Z,79.30
2018-02-16T04:33:30.337Z,79.30
2018-02-16T04:35:58.700Z,79.40
2018-02-16T04:38:27.309Z,79.30
2018-02-16T04:40:55.679Z,79.40
2018-02-16T04:43:24.047Z,79.60
2018-02-16T04:45:52.437Z,79.80
2018-02-16T04:48:20.800Z,79.70
2018-02-16T04:50:49.296Z,79.70
2018-02-16T04:53:17.661Z,79.60
2018-02-16T04:55:46.269Z,79.60
2018-02-16T04:58:14.637Z,79.40
2018-02-16T05:00:43.006Z,79.40
2018-02-16T05:03:11.393Z,79.30
2018-02-16T05:05:39.754Z,79.40
2018-02-16T05:08:08.153Z,79.40
2018-02-16T05:10:36.523Z,79.40
2018-02-16T05:13:04.933Z,79.40
2018-02-16T05:15:33.317Z,79.40
2018-02-16T05:18:01.681Z,79.40
2018-02-16T05:20:30.065Z,79.70
2018-02-16T05:22:58.433Z,79.70
2018-02-16T05:25:26.820Z,79.60
2018-02-16T05:27:55.198Z,79.60
2018-02-16T05:30:23.870Z,79.60
2018-02-16T05:32:52.237Z,79.50
2018-02-16T05:35:20.606Z,79.50
2018-02-16T05:37:48.998Z,79.50
2018-02-16T05:40:17.393Z,79.70
2018-02-16T05:42:45.776Z,79.80
2018-02-16T05:45:14.169Z,79.80
2018-02-16T05:47:43.362Z,79.80
2018-02-16T05:50:11.728Z,79.90
2018-02-16T05:52:40.103Z,79.80
2018-02-16T05:55:08.492Z,79.70
2018-02-16T05:57:36.862Z,79.60
2018-02-16T06:00:05.280Z,79.50
2018-02-16T06:02:33.653Z,79.30
2018-02-16T06:05:02.065Z,79.50
2018-02-16T06:07:30.430Z,79.70
2018-02-16T06:09:59.557Z,80.00
2018-02-16T06:12:27.946Z,79.90
2018-02-16T06:14:56.318Z,80.00
2018-02-16T06:17:24.713Z,80.00
2018-02-16T06:19:53.085Z,80.00
2018-02-16T06:22:21.445Z,79.70
2018-02-16T06:24:49.848Z,79.50
2018-02-16T06:27:18.210Z,79.50
2018-02-16T06:29:46.595Z,79.80
2018-02-16T06:32:14.988Z,79.90
2018-02-16T06:34:43.414Z,79.80
2018-02-16T06:37:12.656Z,79.90
2018-02-16T06:39:41.030Z,79.90
2018-02-16T06:42:09.517Z,80.30
2018-02-16T06:44:37.888Z,80.50
2018-02-16T06:47:06.281Z,80.60
2018-02-16T06:49:34.641Z,80.50
2018-02-16T06:52:03.354Z,80.70
2018-02-16T06:54:31.752Z,81.20
2018-02-16T06:57:00.139Z,81.50
2018-02-16T06:59:29.301Z,81.80
2018-02-16T07:01:57.688Z,81.80
2018-02-16T07:04:26.075Z,81.70
2018-02-16T07:06:55.953Z,81.50
2018-02-16T07:09:24.764Z,81.40
2018-02-16T07:11:53.138Z,81.50
2018-02-16T07:14:21.520Z,81.40
2018-02-16T07:16:49.921Z,81.50
2018-02-16T07:19:18.288Z,81.50
2018-02-16T07:21:46.814Z,81.20
2018-02-16T07:24:15.178Z,81.20
2018-02-16T07:26:44.516Z,80.90
2018-02-16T07:29:13.016Z,80.80
2018-02-16T07:31:42.917Z,81.20
2018-02-16T07:34:11.316Z,81.10
2018-02-16T07:36:39.702Z,80.90
2018-02-16T07:39:08.093Z,80.60
2018-02-16T07:41:36.456Z,80.70
2018-02-16T07:44:05.002Z,80.30
2018-02-16T07:46:33.366Z,80.40
2018-02-16T07:49:01.728Z,80.30
2018-02-16T07:51:30.882Z,80.30
2018-02-16T07:53:59.249Z,80.30
2018-02-16T07:56:27.637Z,80.30
2018-02-16T07:58:56.022Z,80.10
2018-02-16T08:01:24.433Z,80.30
2018-02-16T08:03:53.561Z,80.30
2018-02-16T08:06:21.927Z,80.30
2018-02-16T08:08:50.310Z,80.10
2018-02-16T08:11:18.673Z,80.30
2018-02-16T08:13:47.061Z,80.50
2018-02-16T08:16:15.432Z,80.20
2018-02-16T08:18:44.858Z,80.70
2018-02-16T08:21:13.261Z,80.60
2018-02-16T08:23:41.636Z,80.60
2018-02-16T08:26:10.034Z,80.40
2018-02-16T08:28:38.408Z,80.40
2018-02-16T08:31:06.793Z,80.30
2018-02-16T08:33:35.161Z,80.90
2018-02-16T08:36:03.565Z,80.70
2018-02-16T08:38:31.938Z,80.90
2018-02-16T08:41:00.306Z,81.10
2018-02-16T08:43:28.697Z,81.40
2018-02-16T08:45:58.322Z,81.00
2018-02-16T08:48:27.485Z,80.90
2018-02-16T08:50:55.847Z,80.90
2018-02-16T08:53:24.259Z,80.30
2018-02-16T08:55:52.626Z,80.10
2018-02-16T08:58:20.994Z,80.50
2018-02-16T09:00:49.388Z,81.10
2018-02-16T09:03:17.746Z,80.80
2018-02-16T09:05:46.149Z,81.60
2018-02-16T09:08:14.515Z,80.80
2018-02-16T09:10:43.134Z,80.80
2018-02-16T09:13:11.503Z,80.80
2018-02-16T09:15:40.641Z,80.50
2018-02-16T09:18:09.088Z,80.40
2018-02-16T09:20:37.468Z,80.00
2018-02-16T09:23:05.861Z,79.60
2018-02-16T09:25:34.221Z,79.80
2018-02-16T09:28:03.436Z,79.60
2018-02-16T09:30:31.799Z,79.50
2018-02-16T09:33:00.941Z,79.80
2018-02-16T09:35:34.477Z,79.80
2018-02-16T09:38:02.839Z,79.60
2018-02-16T09:40:31.233Z,79.30
2018-02-16T09:42:59.620Z,79.30
2018-02-16T09:45:28.773Z,79.40
2018-02-16T09:47:57.136Z,79.40
2018-02-16T09:50:25.501Z,78.90
2018-02-16T09:52:53.880Z,78.30
2018-02-16T09:55:22.233Z,77.90
2018-02-16T09:57:51.389Z,77.30
2018-02-16T10:00:19.753Z,77.30
2018-02-16T10:02:48.144Z,76.80
2018-02-16T10:05:16.562Z,76.40
2018-02-16T10:07:45.693Z,74.80
2018-02-16T10:10:14.074Z,74.80
2018-02-16T10:12:42.454Z,74.90
2018-02-16T10:15:10.843Z,74.70
2018-02-16T10:17:39.201Z,74.80
2018-02-16T10:20:07.989Z,74.80
2018-02-16T10:22:36.385Z,74.80
2018-02-16T10:25:04.772Z,74.60
2018-02-16T10:27:33.152Z,75.00
2018-02-16T10:30:01.549Z,74.30
2018-02-16T10:32:30.096Z,74.20
2018-02-16T10:34:58.462Z,74.30
2018-02-16T10:37:26.870Z,74.10
2018-02-16T10:39:55.258Z,73.60
2018-02-16T10:42:23.621Z,73.40
2018-02-16T10:44:52.005Z,74.10
2018-02-16T10:47:20.375Z,73.20
2018-02-16T10:49:48.799Z,71.40
2018-02-16T10:52:17.137Z,71.70
2018-02-16T10:54:45.829Z,71.40
2018-02-16T10:57:14.194Z,70.40
2018-02-16T10:59:42.573Z,71.00
2018-02-16T11:02:16.516Z,70.80
2018-02-16T11:04:50.382Z,70.10
2018-02-16T11:07:24.240Z,70.60
2018-02-16T11:09:53.372Z,70.10
2018-02-16T11:12:21.746Z,70.10
2018-02-16T11:14:50.100Z,70.90
2018-02-16T11:17:19.259Z,71.30
2018-02-16T11:19:47.623Z,71.20
2018-02-16T11:22:16.013Z,71.60
2018-02-16T11:24:44.368Z,71.80
2018-02-16T11:27:12.721Z,71.80
2018-02-16T11:29:41.875Z,72.20
2018-02-16T11:32:10.236Z,72.10
2018-02-16T11:34:38.643Z,72.40
2018-02-16T11:37:08.514Z,72.70
2018-02-16T11:39:36.921Z,72.60
2018-02-16T11:42:05.281Z,72.90
2018-02-16T11:44:33.650Z,72.70
2018-02-16T11:47:02.051Z,72.70
2018-02-16T11:49:30.408Z,73.10
2018-02-16T11:51:58.817Z,73.10
2018-02-16T11:54:27.334Z,73.20
2018-02-16T11:56:56.621Z,73.60
2018-02-16T11:59:25.006Z,73.60
2018-02-16T12:01:54.128Z,73.60
2018-02-16T12:04:22.586Z,73.60
2018-02-16T12:06:51.712Z,74.10
2018-02-16T12:09:20.104Z,73.90
2018-02-16T12:11:48.467Z,73.40
2018-02-16T12:14:17.267Z,73.50
2018-02-16T12:16:45.637Z,73.60
2018-02-16T12:19:13.995Z,73.60
2018-02-16T12:21:42.383Z,73.90
2018-02-16T12:24:10.738Z,74.10
2018-02-16T12:26:39.889Z,74.40
2018-02-16T12:29:08.246Z,74.30
2018-02-16T12:31:36.824Z,74.20
2018-02-16T12:34:05.176Z,74.10
2018-02-16T12:36:34.418Z,74.30
2018-02-16T12:39:02.804Z,74.30
2018-02-16T12:41:31.161Z,74.50
2018-02-16T12:43:59.556Z,75.50
2018-02-16T12:46:27.910Z,75.00
2018-02-16T12:48:56.496Z,75.40
2018-02-16T12:51:24.860Z,75.30
2018-02-16T12:53:53.216Z,74.80
2018-02-16T12:56:22.372Z,74.80
2018-02-16T12:58:50.755Z,74.70
2018-02-16T13:01:19.186Z,74.90
2018-02-16T13:03:47.555Z,74.70
2018-02-16T13:06:16.892Z,74.90
2018-02-16T13:08:45.288Z,74.90
2018-02-16T13:11:13.628Z,75.50
2018-02-16T13:13:42.013Z,75.00
2018-02-16T13:18:42.896Z,75.50
2018-02-16T13:21:11.260Z,75.20
2018-02-16T13:23:39.936Z,75.00
2018-02-16T13:26:08.293Z,75.00
2018-02-16T13:28:37.415Z,74.90
2018-02-16T13:31:05.788Z,74.90
2018-02-16T13:33:34.145Z,74.80
2018-02-16T13:36:03.285Z,75.00
2018-02-16T13:38:31.640Z,75.00
2018-02-16T13:41:00.069Z,74.80
2018-02-16T13:43:28.701Z,75.00
2018-02-16T13:45:57.289Z,75.20
2018-02-16T13:48:25.676Z,75.20
2018-02-16T13:50:54.038Z,75.50
2018-02-16T13:53:22.416Z,75.60
2018-02-16T13:55:50.780Z,75.60
2018-02-16T13:58:20.200Z,75.50
2018-02-16T14:00:48.580Z,75.50
2018-02-16T14:03:16.968Z,75.40
2018-02-16T14:05:45.367Z,75.30
2018-02-16T14:08:13.910Z,75.50
2018-02-16T14:10:42.316Z,75.70
2018-02-16T14:13:10.708Z,76.00
2018-02-16T14:15:39.272Z,76.00
2018-02-16T14:18:07.657Z,76.30
2018-02-16T14:20:36.044Z,76.40
2018-02-16T14:23:04.506Z,76.50
2018-02-16T14:25:32.870Z,76.30
2018-02-16T14:28:01.436Z,76.10
2018-02-16T14:30:30.570Z,76.10
2018-02-16T14:32:59.364Z,76.10
2018-02-16T14:35:27.758Z,76.10
2018-02-16T14:37:56.128Z,76.00
2018-02-16T14:40:24.528Z,76.20
2018-02-16T14:42:52.892Z,76.30
2018-02-16T14:45:22.579Z,76.20
2018-02-16T14:47:50.950Z,76.30
2018-02-16T14:50:19.433Z,76.40
2018-02-16T14:52:47.928Z,76.30
2018-02-16T14:55:16.323Z,76.30
2018-02-16T14:57:44.717Z,76.10
2018-02-16T15:00:13.085Z,76.30
2018-02-16T15:02:41.474Z,76.00
2018-02-16T15:05:09.847Z,75.90
2018-02-16T15:07:38.346Z,76.00
2018-02-16T15:10:07.469Z,76.50
2018-02-16T15:12:35.833Z,76.40
2018-02-16T15:15:05.061Z,76.30
2018-02-16T15:17:33.524Z,76.30
2018-02-16T15:20:02.035Z,77.40
2018-02-16T15:22:30.446Z,76.70
2018-02-16T15:24:58.931Z,76.60
2018-02-16T15:27:27.295Z,76.30
2018-02-16T15:29:55.658Z,76.30
2018-02-16T15:32:24.050Z,76.50
2018-02-16T15:34:52.434Z,76.40
2018-02-16T15:37:20.826Z,76.40
2018-02-16T15:39:49.368Z,76.10
2018-02-16T15:42:17.934Z,76.50
2018-02-16T15:44:46.326Z,76.40
2018-02-16T15:47:14.966Z,76.60
2018-02-16T15:49:44.142Z,77.00
2018-02-16T15:52:12.638Z,77.00
2018-02-16T15:54:42.270Z,77.80
2018-02-16T15:57:10.682Z,77.70
2018-02-16T15:59:39.467Z,77.50
2018-02-16T16:02:07.890Z,77.40
2018-02-16T16:04:36.276Z,77.50
2018-02-16T16:07:05.437Z,77.50
2018-02-16T16:09:33.802Z,77.50
2018-02-16T16:12:02.195Z,77.50
2018-02-16T16:14:30.562Z,77.30
2018-02-16T16:16:58.993Z,77.10
2018-02-16T16:19:28.121Z,77.20
2018-02-16T16:21:56.692Z,77.20
2018-02-16T16:24:25.161Z,77.00
2018-02-16T16:26:53.723Z,76.70
2018-02-16T16:29:22.899Z,77.00
2018-02-16T16:31:51.276Z,77.00
2018-02-16T16:34:19.826Z,77.40
2018-02-16T16:36:48.189Z,77.40
2018-02-16T16:39:16.570Z,77.00
2018-02-16T16:41:44.971Z,77.10
2018-02-16T16:44:13.335Z,77.20
2018-02-16T16:46:42.317Z,77.20
2018-02-16T16:49:10.813Z,77.30
2018-02-16T16:51:39.399Z,77.20
2018-02-16T16:54:07.764Z,77.20
2018-02-16T16:56:36.137Z,77.10
2018-02-16T16:59:04.538Z,77.20
2018-02-16T17:01:32.905Z,77.10
2018-02-16T17:04:01.326Z,77.10
2018-02-16T17:06:29.743Z,77.10
2018-02-16T17:08:58.132Z,77.10
2018-02-16T17:11:26.522Z,77.20
2018-02-16T17:13:56.833Z,77.20
2018-02-16T17:16:26.277Z,77.30
2018-02-16T17:18:54.759Z,77.40
2018-02-16T17:21:24.534Z,77.40
2018-02-16T17:23:52.912Z,77.30
2018-02-16T17:26:26.526Z,77.40
2018-02-16T17:29:12.438Z,77.50
2018-02-16T17:31:45.281Z,77.60
2018-02-16T17:34:14.597Z,77.70
2018-02-16T17:36:43.041Z,77.70
2018-02-16T17:39:12.358Z,77.70
2018-02-16T17:41:41.304Z,77.70
2018-02-16T17:44:09.699Z,77.50
2018-02-16T17:46:38.144Z,77.90
2018-02-16T17:49:06.829Z,78.70
2018-02-16T17:51:35.229Z,78.50
2018-02-16T17:54:03.650Z,78.00
2018-02-16T17:56:32.089Z,77.90
2018-02-16T17:59:00.462Z,78.90
2018-02-16T18:01:28.870Z,78.90
2018-02-16T18:03:57.998Z,79.30
2018-02-16T18:06:26.409Z,79.30
2018-02-16T18:08:54.774Z,79.50
2018-02-16T18:11:23.165Z,79.40
2018-02-16T18:13:51.561Z,79.10
2018-02-16T18:16:19.921Z,78.90
2018-02-16T18:18:48.346Z,78.70
2018-02-16T18:21:17.477Z,78.60
2018-02-16T18:23:46.373Z,78.60
2018-02-16T18:26:14.778Z,78.40
2018-02-16T18:28:44.662Z,78.40
2018-02-16T18:31:13.969Z,78.30
2018-02-16T18:33:42.369Z,78.20
2018-02-16T18:36:10.901Z,78.30
2018-02-16T18:38:39.279Z,78.40
2018-02-16T18:41:07.706Z,78.60
2018-02-16T18:43:36.105Z,78.60
2018-02-16T18:46:04.550Z,78.70
2018-02-16T18:48:32.946Z,78.70
2018-02-16T18:51:02.147Z,77.90
2018-02-16T18:53:31.971Z,78.00
2018-02-16T18:56:00.402Z,77.70
2018-02-16T18:58:28.959Z,77.50
2018-02-16T19:00:57.578Z,77.40
2018-02-16T19:03:26.188Z,77.30
2018-02-16T19:05:56.908Z,77.30
2018-02-16T19:08:25.583Z,77.10
2018-02-16T19:10:54.140Z,77.20
2018-02-16T19:13:22.750Z,77.20
2018-02-16T19:15:51.858Z,77.00
2018-02-16T19:18:20.257Z,76.90
2018-02-16T19:20:49.007Z,76.80
2018-02-16T19:23:17.466Z,77.00
2018-02-16T19:25:46.881Z,77.20
2018-02-16T19:28:16.171Z,76.90
2018-02-16T19:30:45.087Z,76.80
2018-02-16T19:33:15.457Z,77.30
2018-02-16T19:35:44.399Z,77.30
2018-02-16T19:38:12.994Z,77.50
2018-02-16T19:40:41.768Z,77.50
2018-02-16T19:43:11.991Z,77.30
2018-02-16T19:45:42.310Z,77.20
2018-02-16T19:48:10.694Z,77.20
2018-02-16T19:50:39.702Z,77.20
2018-02-16T19:53:08.515Z,77.10
2018-02-16T19:55:37.056Z,76.90
2018-02-16T19:58:06.664Z,77.40
2018-02-16T20:00:36.530Z,77.40
2018-02-16T20:03:05.922Z,77.20
2018-02-16T20:05:35.146Z,77.40
2018-02-16T20:08:04.930Z,77.40
2018-02-16T20:10:33.573Z,77.20
2018-02-16T20:13:02.802Z,77.20
2018-02-16T20:15:31.417Z,77.20
2018-02-16T20:18:00.418Z,77.30
2018-02-16T20:20:30.262Z,76.70
2018-02-16T20:22:58.830Z,76.90
2018-02-16T20:25:27.242Z,77.00
2018-02-16T20:27:56.066Z,76.80
2018-02-16T20:30:26.547Z,76.70
2018-02-16T20:32:56.708Z,76.70
2018-02-16T20:35:25.970Z,76.80
2018-02-16T20:37:54.948Z,76.80
2018-02-16T20:40:24.781Z,77.30
2018-02-16T20:42:53.310Z,77.30
2018-02-16T20:45:22.032Z,77.20
2018-02-16T20:47:51.332Z,77.10
2018-02-16T20:50:19.782Z,77.00
2018-02-16T20:52:49.670Z,77.10
2018-02-16T20:55:18.102Z,77.00
2018-02-16T20:57:47.302Z,77.20
2018-02-16T21:00:15.751Z,77.30
2018-02-16T21:02:44.264Z,77.30
2018-02-16T21:05:13.954Z,77.90
2018-02-16T21:07:42.853Z,77.10
2018-02-16T21:10:11.763Z,77.00
2018-02-16T21:12:40.519Z,77.10
2018-02-16T21:15:10.251Z,77.10
2018-02-16T21:17:39.900Z,76.90
2018-02-16T21:20:08.809Z,77.30
2018-02-16T21:22:37.209Z,77.10
2018-02-16T21:25:05.609Z,77.40
2018-02-16T21:27:34.011Z,77.70
2018-02-16T21:30:02.478Z,77.70
2018-02-16T21:32:30.977Z,77.80
2018-02-16T21:34:59.407Z,77.90
2018-02-16T21:37:27.872Z,77.90
2018-02-16T21:39:56.614Z,78.30
2018-02-16T21:42:25.178Z,78.50
2018-02-16T21:44:54.888Z,78.60
2018-02-16T21:47:23.278Z,78.70
2018-02-16T21:49:51.669Z,78.60
2018-02-16T21:52:20.046Z,78.80
2018-02-16T21:54:49.221Z,79.60
2018-02-16T21:57:17.590Z,78.90
2018-02-16T21:59:46.004Z,78.80
2018-02-16T22:02:14.386Z,78.30
2018-02-16T22:04:42.761Z,78.40
2018-02-16T22:07:11.158Z,78.60
2018-02-16T22:09:40.302Z,78.50
2018-02-16T22:12:09.034Z,78.50
2018-02-16T22:14:37.953Z,78.10
2018-02-16T22:17:06.328Z,78.20
2018-02-16T22:19:34.813Z,78.10
2018-02-16T22:22:03.293Z,78.10
2018-02-16T22:24:32.214Z,77.90
2018-02-16T22:27:00.699Z,78.00
2018-02-16T22:29:33.122Z,77.70
2018-02-16T22:32:02.267Z,77.50
2018-02-16T22:34:30.647Z,77.40
2018-02-16T22:36:59.170Z,77.40
2018-02-16T22:39:28.315Z,77.40
2018-02-16T22:41:56.761Z,77.40
2018-02-16T22:44:25.944Z,77.40
2018-02-16T22:46:54.678Z,77.30
2018-02-16T22:49:23.054Z,77.50
2018-02-16T22:51:51.957Z,78.20
2018-02-16T22:54:21.040Z,79.40
2018-02-16T22:56:49.873Z,79.40
2018-02-16T22:59:20.983Z,79.10
2018-02-16T23:01:49.366Z,78.80
2018-02-16T23:04:18.213Z,79.00
2018-02-16T23:06:47.390Z,78.90
2018-02-16T23:09:16.592Z,78.50
2018-02-16T23:11:48.902Z,77.20
2018-02-16T23:14:17.297Z,77.20
2018-02-16T23:16:45.682Z,77.50
2018-02-16T23:19:14.069Z,77.40
2018-02-16T23:21:42.845Z,77.90
2018-02-16T23:24:18.774Z,78.40
2018-02-16T23:26:48.457Z,79.40
2018-02-16T23:29:17.704Z,78.20
2018-02-16T23:32:08.227Z,78.10
2018-02-16T23:37:59.740Z,78.80
2018-02-16T23:40:30.676Z,78.40
2018-02-16T23:42:59.018Z,78.40
2018-02-16T23:45:28.142Z,78.60
2018-02-16T23:47:56.691Z,79.00
2018-02-16T23:50:25.069Z,80.00
2018-02-16T23:52:53.438Z,79.10
2018-02-16T23:55:21.838Z,79.10
2018-02-16T23:57:50.218Z,78.80
